sensor_id;sensor_type;location;lat;lon;timestamp;P1;durP1;ratioP1;P2;durP2;ratioP2
52508;SDS011;38420;53.150;6.370;2024-01-11T00:00:44;22.48;;;11.48;;
52508;SDS011;38420;53.150;6.370;2024-01-11T00:03:10;28.80;;;10.90;;
52508;SDS011;38420;53.150;6.370;2024-01-11T00:05:35;27.27;;;11.55;;
52508;SDS011;38420;53.150;6.370;2024-01-11T00:08:01;28.75;;;11.68;;
52508;SDS011;38420;53.150;6.370;2024-01-11T00:10:27;32.25;;;12.85;;
52508;SDS011;38420;53.150;6.370;2024-01-11T00:12:53;33.28;;;12.38;;
52508;SDS011;38420;53.150;6.370;2024-01-11T00:15:19;31.75;;;13.88;;
52508;SDS011;38420;53.150;6.370;2024-01-11T00:17:44;26.95;;;12.07;;
52508;SDS011;38420;53.150;6.370;2024-01-11T00:20:10;30.08;;;12.57;;
52508;SDS011;38420;53.150;6.370;2024-01-11T00:22:36;35.35;;;12.70;;
52508;SDS011;38420;53.150;6.370;2024-01-11T00:25:02;28.77;;;12.13;;
52508;SDS011;38420;53.150;6.370;2024-01-11T00:27:29;31.92;;;13.15;;
52508;SDS011;38420;53.150;6.370;2024-01-11T00:29:54;25.30;;;12.15;;
52508;SDS011;38420;53.150;6.370;2024-01-11T00:32:20;31.20;;;11.52;;
52508;SDS011;38420;53.150;6.370;2024-01-11T00:34:48;24.45;;;11.15;;
52508;SDS011;38420;53.150;6.370;2024-01-11T00:37:14;30.55;;;12.30;;
52508;SDS011;38420;53.150;6.370;2024-01-11T00:39:40;35.42;;;14.23;;
52508;SDS011;38420;53.150;6.370;2024-01-11T00:42:06;31.25;;;13.80;;
52508;SDS011;38420;53.150;6.370;2024-01-11T00:44:31;29.60;;;12.18;;
52508;SDS011;38420;53.150;6.370;2024-01-11T00:46:57;28.90;;;11.95;;
52508;SDS011;38420;53.150;6.370;2024-01-11T00:49:23;32.47;;;13.10;;
52508;SDS011;38420;53.150;6.370;2024-01-11T00:51:49;28.77;;;13.18;;
52508;SDS011;38420;53.150;6.370;2024-01-11T00:54:14;32.58;;;13.18;;
52508;SDS011;38420;53.150;6.370;2024-01-11T00:56:40;32.97;;;15.82;;
52508;SDS011;38420;53.150;6.370;2024-01-11T00:59:05;31.27;;;13.57;;
52508;SDS011;38420;53.150;6.370;2024-01-11T01:01:31;28.25;;;13.35;;
52508;SDS011;38420;53.150;6.370;2024-01-11T01:03:56;32.10;;;13.25;;
52508;SDS011;38420;53.150;6.370;2024-01-11T01:06:23;27.02;;;11.55;;
52508;SDS011;38420;53.150;6.370;2024-01-11T01:08:48;27.13;;;12.75;;
52508;SDS011;38420;53.150;6.370;2024-01-11T01:11:14;31.05;;;13.52;;
52508;SDS011;38420;53.150;6.370;2024-01-11T01:13:39;29.08;;;12.38;;
52508;SDS011;38420;53.150;6.370;2024-01-11T01:16:05;33.17;;;13.88;;
52508;SDS011;38420;53.150;6.370;2024-01-11T01:18:30;28.60;;;11.75;;
52508;SDS011;38420;53.150;6.370;2024-01-11T01:20:56;24.45;;;12.30;;
52508;SDS011;38420;53.150;6.370;2024-01-11T01:23:21;35.42;;;13.27;;
52508;SDS011;38420;53.150;6.370;2024-01-11T01:25:48;34.80;;;13.95;;
52508;SDS011;38420;53.150;6.370;2024-01-11T01:28:13;31.92;;;15.20;;
52508;SDS011;38420;53.150;6.370;2024-01-11T01:30:39;30.63;;;12.57;;
52508;SDS011;38420;53.150;6.370;2024-01-11T01:33:05;31.65;;;14.77;;
52508;SDS011;38420;53.150;6.370;2024-01-11T01:35:30;31.05;;;14.43;;
52508;SDS011;38420;53.150;6.370;2024-01-11T01:37:56;29.98;;;13.18;;
52508;SDS011;38420;53.150;6.370;2024-01-11T01:40:22;30.55;;;13.60;;
52508;SDS011;38420;53.150;6.370;2024-01-11T01:42:47;28.30;;;12.45;;
52508;SDS011;38420;53.150;6.370;2024-01-11T01:45:14;29.90;;;13.48;;
52508;SDS011;38420;53.150;6.370;2024-01-11T01:47:40;34.97;;;12.55;;
52508;SDS011;38420;53.150;6.370;2024-01-11T01:50:07;30.02;;;12.90;;
52508;SDS011;38420;53.150;6.370;2024-01-11T01:52:35;31.58;;;12.55;;
52508;SDS011;38420;53.150;6.370;2024-01-11T01:55:03;33.35;;;13.85;;
52508;SDS011;38420;53.150;6.370;2024-01-11T01:57:30;29.77;;;12.02;;
52508;SDS011;38420;53.150;6.370;2024-01-11T01:59:58;29.63;;;11.27;;
52508;SDS011;38420;53.150;6.370;2024-01-11T02:02:24;25.40;;;12.90;;
52508;SDS011;38420;53.150;6.370;2024-01-11T02:04:50;31.63;;;13.82;;
52508;SDS011;38420;53.150;6.370;2024-01-11T02:07:16;32.90;;;11.93;;
52508;SDS011;38420;53.150;6.370;2024-01-11T02:09:43;36.35;;;14.02;;
52508;SDS011;38420;53.150;6.370;2024-01-11T02:12:09;32.38;;;13.85;;
52508;SDS011;38420;53.150;6.370;2024-01-11T02:14:37;32.80;;;13.15;;
52508;SDS011;38420;53.150;6.370;2024-01-11T02:17:03;28.80;;;12.30;;
52508;SDS011;38420;53.150;6.370;2024-01-11T02:19:29;31.42;;;12.88;;
52508;SDS011;38420;53.150;6.370;2024-01-11T02:21:55;32.28;;;12.27;;
52508;SDS011;38420;53.150;6.370;2024-01-11T02:24:24;32.17;;;12.63;;
52508;SDS011;38420;53.150;6.370;2024-01-11T02:26:59;31.08;;;12.50;;
52508;SDS011;38420;53.150;6.370;2024-01-11T02:29:26;30.25;;;13.75;;
52508;SDS011;38420;53.150;6.370;2024-01-11T02:31:52;28.08;;;12.68;;
52508;SDS011;38420;53.150;6.370;2024-01-11T02:34:19;27.48;;;13.27;;
52508;SDS011;38420;53.150;6.370;2024-01-11T02:36:45;34.45;;;13.30;;
52508;SDS011;38420;53.150;6.370;2024-01-11T02:39:11;34.60;;;14.13;;
52508;SDS011;38420;53.150;6.370;2024-01-11T02:41:38;36.45;;;14.32;;
52508;SDS011;38420;53.150;6.370;2024-01-11T02:44:04;30.50;;;13.18;;
52508;SDS011;38420;53.150;6.370;2024-01-11T02:46:30;32.20;;;12.35;;
52508;SDS011;38420;53.150;6.370;2024-01-11T02:48:55;29.40;;;13.20;;
52508;SDS011;38420;53.150;6.370;2024-01-11T02:51:21;37.30;;;12.73;;
52508;SDS011;38420;53.150;6.370;2024-01-11T02:53:46;26.33;;;11.70;;
52508;SDS011;38420;53.150;6.370;2024-01-11T02:56:12;31.42;;;14.00;;
52508;SDS011;38420;53.150;6.370;2024-01-11T02:58:38;34.85;;;13.82;;
52508;SDS011;38420;53.150;6.370;2024-01-11T03:01:03;26.00;;;12.35;;
52508;SDS011;38420;53.150;6.370;2024-01-11T03:03:29;31.48;;;12.57;;
52508;SDS011;38420;53.150;6.370;2024-01-11T03:05:54;31.55;;;13.18;;
52508;SDS011;38420;53.150;6.370;2024-01-11T03:08:20;35.15;;;15.13;;
52508;SDS011;38420;53.150;6.370;2024-01-11T03:10:45;36.72;;;14.05;;
52508;SDS011;38420;53.150;6.370;2024-01-11T03:13:11;30.55;;;13.48;;
52508;SDS011;38420;53.150;6.370;2024-01-11T03:15:37;34.97;;;13.48;;
52508;SDS011;38420;53.150;6.370;2024-01-11T03:18:03;26.75;;;13.32;;
52508;SDS011;38420;53.150;6.370;2024-01-11T03:20:29;33.85;;;14.73;;
52508;SDS011;38420;53.150;6.370;2024-01-11T03:22:55;32.30;;;14.32;;
52508;SDS011;38420;53.150;6.370;2024-01-11T03:25:20;30.45;;;12.23;;
52508;SDS011;38420;53.150;6.370;2024-01-11T03:27:46;30.25;;;12.52;;
52508;SDS011;38420;53.150;6.370;2024-01-11T03:30:11;32.58;;;12.75;;
52508;SDS011;38420;53.150;6.370;2024-01-11T03:32:37;33.03;;;14.55;;
52508;SDS011;38420;53.150;6.370;2024-01-11T03:35:05;30.17;;;12.25;;
52508;SDS011;38420;53.150;6.370;2024-01-11T03:37:33;27.13;;;12.13;;
52508;SDS011;38420;53.150;6.370;2024-01-11T03:40:02;32.28;;;12.45;;
52508;SDS011;38420;53.150;6.370;2024-01-11T03:42:29;30.42;;;12.15;;
52508;SDS011;38420;53.150;6.370;2024-01-11T03:44:54;31.05;;;13.93;;
52508;SDS011;38420;53.150;6.370;2024-01-11T03:47:20;36.30;;;14.38;;
52508;SDS011;38420;53.150;6.370;2024-01-11T03:49:46;30.48;;;13.18;;
52508;SDS011;38420;53.150;6.370;2024-01-11T03:52:11;31.67;;;14.38;;
52508;SDS011;38420;53.150;6.370;2024-01-11T03:54:37;29.50;;;15.50;;
52508;SDS011;38420;53.150;6.370;2024-01-11T03:57:03;32.72;;;13.23;;
52508;SDS011;38420;53.150;6.370;2024-01-11T03:59:28;31.02;;;12.63;;
52508;SDS011;38420;53.150;6.370;2024-01-11T04:01:55;25.30;;;10.93;;
52508;SDS011;38420;53.150;6.370;2024-01-11T04:04:21;35.45;;;12.95;;
52508;SDS011;38420;53.150;6.370;2024-01-11T04:06:47;30.02;;;12.00;;
52508;SDS011;38420;53.150;6.370;2024-01-11T04:09:13;29.52;;;12.95;;
52508;SDS011;38420;53.150;6.370;2024-01-11T04:11:39;33.88;;;15.13;;
52508;SDS011;38420;53.150;6.370;2024-01-11T04:14:04;28.60;;;13.82;;
52508;SDS011;38420;53.150;6.370;2024-01-11T04:16:30;33.03;;;12.30;;
52508;SDS011;38420;53.150;6.370;2024-01-11T04:18:55;38.63;;;16.00;;
52508;SDS011;38420;53.150;6.370;2024-01-11T04:21:24;32.25;;;13.05;;
52508;SDS011;38420;53.150;6.370;2024-01-11T04:23:54;35.95;;;14.85;;
52508;SDS011;38420;53.150;6.370;2024-01-11T04:26:20;33.10;;;14.32;;
52508;SDS011;38420;53.150;6.370;2024-01-11T04:28:46;32.13;;;14.05;;
52508;SDS011;38420;53.150;6.370;2024-01-11T04:31:13;29.75;;;15.13;;
52508;SDS011;38420;53.150;6.370;2024-01-11T04:33:40;38.20;;;14.30;;
52508;SDS011;38420;53.150;6.370;2024-01-11T04:36:07;35.25;;;14.85;;
52508;SDS011;38420;53.150;6.370;2024-01-11T04:38:35;26.77;;;12.57;;
52508;SDS011;38420;53.150;6.370;2024-01-11T04:41:13;35.10;;;15.32;;
52508;SDS011;38420;53.150;6.370;2024-01-11T04:43:40;33.97;;;12.05;;
52508;SDS011;38420;53.150;6.370;2024-01-11T04:46:13;32.60;;;13.65;;
52508;SDS011;38420;53.150;6.370;2024-01-11T04:48:39;33.83;;;13.07;;
52508;SDS011;38420;53.150;6.370;2024-01-11T04:51:05;36.80;;;16.30;;
52508;SDS011;38420;53.150;6.370;2024-01-11T04:53:31;39.13;;;14.65;;
52508;SDS011;38420;53.150;6.370;2024-01-11T04:55:57;35.30;;;14.07;;
52508;SDS011;38420;53.150;6.370;2024-01-11T04:58:22;44.85;;;16.95;;
52508;SDS011;38420;53.150;6.370;2024-01-11T05:00:48;42.25;;;16.42;;
52508;SDS011;38420;53.150;6.370;2024-01-11T05:03:14;41.78;;;16.33;;
52508;SDS011;38420;53.150;6.370;2024-01-11T05:05:39;37.92;;;14.80;;
52508;SDS011;38420;53.150;6.370;2024-01-11T05:08:05;37.08;;;16.20;;
52508;SDS011;38420;53.150;6.370;2024-01-11T05:10:31;41.78;;;15.77;;
52508;SDS011;38420;53.150;6.370;2024-01-11T05:12:56;45.15;;;18.35;;
52508;SDS011;38420;53.150;6.370;2024-01-11T05:15:22;41.63;;;16.30;;
52508;SDS011;38420;53.150;6.370;2024-01-11T05:17:47;39.67;;;17.48;;
52508;SDS011;38420;53.150;6.370;2024-01-11T05:20:13;43.58;;;17.70;;
52508;SDS011;38420;53.150;6.370;2024-01-11T05:22:39;38.10;;;15.55;;
52508;SDS011;38420;53.150;6.370;2024-01-11T05:25:05;35.28;;;16.33;;
52508;SDS011;38420;53.150;6.370;2024-01-11T05:27:31;38.83;;;15.93;;
52508;SDS011;38420;53.150;6.370;2024-01-11T05:29:56;38.45;;;15.98;;
52508;SDS011;38420;53.150;6.370;2024-01-11T05:32:22;39.53;;;16.02;;
52508;SDS011;38420;53.150;6.370;2024-01-11T05:34:47;37.28;;;15.50;;
52508;SDS011;38420;53.150;6.370;2024-01-11T05:37:13;44.30;;;17.05;;
52508;SDS011;38420;53.150;6.370;2024-01-11T05:39:38;36.35;;;15.80;;
52508;SDS011;38420;53.150;6.370;2024-01-11T05:42:04;42.40;;;16.92;;
52508;SDS011;38420;53.150;6.370;2024-01-11T05:44:31;46.20;;;17.27;;
52508;SDS011;38420;53.150;6.370;2024-01-11T05:46:57;45.47;;;17.85;;
52508;SDS011;38420;53.150;6.370;2024-01-11T05:49:23;49.45;;;16.73;;
52508;SDS011;38420;53.150;6.370;2024-01-11T05:51:48;40.53;;;18.02;;
52508;SDS011;38420;53.150;6.370;2024-01-11T05:54:14;38.40;;;15.88;;
52508;SDS011;38420;53.150;6.370;2024-01-11T05:56:39;39.95;;;15.25;;
52508;SDS011;38420;53.150;6.370;2024-01-11T05:59:05;40.40;;;17.08;;
52508;SDS011;38420;53.150;6.370;2024-01-11T06:01:30;37.45;;;17.80;;
52508;SDS011;38420;53.150;6.370;2024-01-11T06:03:57;41.95;;;15.75;;
52508;SDS011;38420;53.150;6.370;2024-01-11T06:06:22;43.75;;;16.65;;
52508;SDS011;38420;53.150;6.370;2024-01-11T06:08:48;38.38;;;16.77;;
52508;SDS011;38420;53.150;6.370;2024-01-11T06:11:13;43.15;;;16.50;;
52508;SDS011;38420;53.150;6.370;2024-01-11T06:13:40;41.08;;;15.63;;
52508;SDS011;38420;53.150;6.370;2024-01-11T06:16:06;36.53;;;14.63;;
52508;SDS011;38420;53.150;6.370;2024-01-11T06:18:32;42.45;;;17.13;;
52508;SDS011;38420;53.150;6.370;2024-01-11T06:20:58;43.08;;;17.88;;
52508;SDS011;38420;53.150;6.370;2024-01-11T06:23:24;43.22;;;17.45;;
52508;SDS011;38420;53.150;6.370;2024-01-11T06:25:50;34.30;;;14.02;;
52508;SDS011;38420;53.150;6.370;2024-01-11T06:28:15;35.75;;;15.20;;
52508;SDS011;38420;53.150;6.370;2024-01-11T06:30:41;33.55;;;15.93;;
52508;SDS011;38420;53.150;6.370;2024-01-11T06:33:08;35.00;;;16.17;;
52508;SDS011;38420;53.150;6.370;2024-01-11T06:35:34;45.97;;;19.33;;
52508;SDS011;38420;53.150;6.370;2024-01-11T06:37:59;40.78;;;17.90;;
52508;SDS011;38420;53.150;6.370;2024-01-11T06:40:25;43.55;;;17.75;;
52508;SDS011;38420;53.150;6.370;2024-01-11T06:42:51;39.47;;;16.80;;
52508;SDS011;38420;53.150;6.370;2024-01-11T06:45:17;52.45;;;19.45;;
52508;SDS011;38420;53.150;6.370;2024-01-11T06:47:42;40.42;;;15.23;;
52508;SDS011;38420;53.150;6.370;2024-01-11T06:50:11;43.55;;;16.98;;
52508;SDS011;38420;53.150;6.370;2024-01-11T06:52:37;39.70;;;17.75;;
52508;SDS011;38420;53.150;6.370;2024-01-11T06:55:03;39.40;;;18.67;;
52508;SDS011;38420;53.150;6.370;2024-01-11T06:57:29;34.42;;;15.82;;
52508;SDS011;38420;53.150;6.370;2024-01-11T06:59:55;48.25;;;18.17;;
52508;SDS011;38420;53.150;6.370;2024-01-11T07:02:21;43.50;;;18.23;;
52508;SDS011;38420;53.150;6.370;2024-01-11T07:04:47;46.80;;;19.08;;
52508;SDS011;38420;53.150;6.370;2024-01-11T07:07:12;42.53;;;17.58;;
52508;SDS011;38420;53.150;6.370;2024-01-11T07:09:38;43.03;;;18.13;;
52508;SDS011;38420;53.150;6.370;2024-01-11T07:12:04;44.47;;;17.42;;
52508;SDS011;38420;53.150;6.370;2024-01-11T07:14:30;46.50;;;20.63;;
52508;SDS011;38420;53.150;6.370;2024-01-11T07:16:56;43.30;;;18.60;;
52508;SDS011;38420;53.150;6.370;2024-01-11T07:19:21;43.13;;;17.45;;
52508;SDS011;38420;53.150;6.370;2024-01-11T07:21:47;43.00;;;17.58;;
52508;SDS011;38420;53.150;6.370;2024-01-11T07:24:12;39.97;;;17.80;;
52508;SDS011;38420;53.150;6.370;2024-01-11T07:26:38;46.88;;;20.67;;
52508;SDS011;38420;53.150;6.370;2024-01-11T07:29:04;57.42;;;23.98;;
52508;SDS011;38420;53.150;6.370;2024-01-11T07:31:29;57.20;;;22.70;;
52508;SDS011;38420;53.150;6.370;2024-01-11T07:33:55;44.65;;;20.10;;
52508;SDS011;38420;53.150;6.370;2024-01-11T07:36:20;40.55;;;18.02;;
52508;SDS011;38420;53.150;6.370;2024-01-11T07:38:47;43.05;;;18.20;;
52508;SDS011;38420;53.150;6.370;2024-01-11T07:41:13;51.35;;;17.85;;
52508;SDS011;38420;53.150;6.370;2024-01-11T07:43:39;41.17;;;16.52;;
52508;SDS011;38420;53.150;6.370;2024-01-11T07:46:05;45.22;;;17.63;;
52508;SDS011;38420;53.150;6.370;2024-01-11T07:48:32;41.15;;;15.68;;
52508;SDS011;38420;53.150;6.370;2024-01-11T07:50:58;43.22;;;17.20;;
52508;SDS011;38420;53.150;6.370;2024-01-11T07:53:24;48.90;;;19.00;;
52508;SDS011;38420;53.150;6.370;2024-01-11T07:55:51;45.67;;;18.08;;
52508;SDS011;38420;53.150;6.370;2024-01-11T07:58:16;42.10;;;16.75;;
52508;SDS011;38420;53.150;6.370;2024-01-11T08:00:42;38.35;;;16.60;;
52508;SDS011;38420;53.150;6.370;2024-01-11T08:03:08;43.58;;;16.92;;
52508;SDS011;38420;53.150;6.370;2024-01-11T08:05:34;37.50;;;16.15;;
52508;SDS011;38420;53.150;6.370;2024-01-11T08:08:00;39.88;;;18.95;;
52508;SDS011;38420;53.150;6.370;2024-01-11T08:10:28;43.47;;;16.48;;
52508;SDS011;38420;53.150;6.370;2024-01-11T08:12:53;42.25;;;16.35;;
52508;SDS011;38420;53.150;6.370;2024-01-11T08:15:20;42.03;;;17.67;;
52508;SDS011;38420;53.150;6.370;2024-01-11T08:17:45;40.35;;;16.10;;
52508;SDS011;38420;53.150;6.370;2024-01-11T08:20:11;43.30;;;16.70;;
52508;SDS011;38420;53.150;6.370;2024-01-11T08:22:43;37.28;;;16.10;;
52508;SDS011;38420;53.150;6.370;2024-01-11T08:25:11;44.10;;;17.15;;
52508;SDS011;38420;53.150;6.370;2024-01-11T08:27:36;35.20;;;15.07;;
52508;SDS011;38420;53.150;6.370;2024-01-11T08:30:02;42.45;;;16.80;;
52508;SDS011;38420;53.150;6.370;2024-01-11T08:32:29;45.70;;;19.85;;
52508;SDS011;38420;53.150;6.370;2024-01-11T08:34:56;44.72;;;17.58;;
52508;SDS011;38420;53.150;6.370;2024-01-11T08:37:22;41.10;;;18.40;;
52508;SDS011;38420;53.150;6.370;2024-01-11T08:39:48;46.60;;;17.42;;
52508;SDS011;38420;53.150;6.370;2024-01-11T08:42:14;42.80;;;17.73;;
52508;SDS011;38420;53.150;6.370;2024-01-11T08:44:43;38.20;;;18.20;;
52508;SDS011;38420;53.150;6.370;2024-01-11T08:47:09;41.60;;;17.15;;
52508;SDS011;38420;53.150;6.370;2024-01-11T08:49:38;41.92;;;17.33;;
52508;SDS011;38420;53.150;6.370;2024-01-11T08:52:04;42.00;;;16.98;;
52508;SDS011;38420;53.150;6.370;2024-01-11T08:54:31;48.35;;;19.05;;
52508;SDS011;38420;53.150;6.370;2024-01-11T08:56:59;36.50;;;16.85;;
52508;SDS011;38420;53.150;6.370;2024-01-11T08:59:26;43.22;;;18.75;;
52508;SDS011;38420;53.150;6.370;2024-01-11T09:01:52;47.50;;;18.73;;
52508;SDS011;38420;53.150;6.370;2024-01-11T09:04:17;42.17;;;18.50;;
52508;SDS011;38420;53.150;6.370;2024-01-11T09:06:43;39.50;;;18.83;;
52508;SDS011;38420;53.150;6.370;2024-01-11T09:09:10;40.65;;;16.92;;
52508;SDS011;38420;53.150;6.370;2024-01-11T09:11:38;39.22;;;17.95;;
52508;SDS011;38420;53.150;6.370;2024-01-11T09:14:06;40.85;;;16.92;;
52508;SDS011;38420;53.150;6.370;2024-01-11T09:16:32;44.13;;;15.73;;
52508;SDS011;38420;53.150;6.370;2024-01-11T09:18:58;41.65;;;16.95;;
52508;SDS011;38420;53.150;6.370;2024-01-11T09:21:25;36.22;;;17.95;;
52508;SDS011;38420;53.150;6.370;2024-01-11T09:23:51;41.85;;;16.83;;
52508;SDS011;38420;53.150;6.370;2024-01-11T09:26:17;37.40;;;17.02;;
52508;SDS011;38420;53.150;6.370;2024-01-11T09:28:43;54.17;;;19.75;;
52508;SDS011;38420;53.150;6.370;2024-01-11T09:31:08;42.17;;;17.77;;
52508;SDS011;38420;53.150;6.370;2024-01-11T09:33:34;40.30;;;17.73;;
52508;SDS011;38420;53.150;6.370;2024-01-11T09:35:59;40.00;;;18.83;;
52508;SDS011;38420;53.150;6.370;2024-01-11T09:38:25;40.53;;;18.00;;
52508;SDS011;38420;53.150;6.370;2024-01-11T09:40:54;49.78;;;17.77;;
52508;SDS011;38420;53.150;6.370;2024-01-11T09:45:58;38.03;;;16.02;;
52508;SDS011;38420;53.150;6.370;2024-01-11T09:48:25;37.95;;;16.23;;
52508;SDS011;38420;53.150;6.370;2024-01-11T09:50:52;42.53;;;16.92;;
52508;SDS011;38420;53.150;6.370;2024-01-11T09:53:18;40.92;;;16.67;;
52508;SDS011;38420;53.150;6.370;2024-01-11T09:55:48;36.53;;;17.92;;
52508;SDS011;38420;53.150;6.370;2024-01-11T09:58:14;36.28;;;17.23;;
52508;SDS011;38420;53.150;6.370;2024-01-11T10:00:40;40.55;;;16.10;;
52508;SDS011;38420;53.150;6.370;2024-01-11T10:03:06;38.13;;;16.65;;
52508;SDS011;38420;53.150;6.370;2024-01-11T10:05:33;45.05;;;18.25;;
52508;SDS011;38420;53.150;6.370;2024-01-11T10:08:00;41.92;;;16.98;;
52508;SDS011;38420;53.150;6.370;2024-01-11T10:10:26;41.88;;;17.40;;
52508;SDS011;38420;53.150;6.370;2024-01-11T10:12:52;41.65;;;16.88;;
52508;SDS011;38420;53.150;6.370;2024-01-11T10:15:18;41.17;;;16.95;;
52508;SDS011;38420;53.150;6.370;2024-01-11T10:17:49;33.97;;;16.53;;
52508;SDS011;38420;53.150;6.370;2024-01-11T10:20:14;38.28;;;17.13;;
52508;SDS011;38420;53.150;6.370;2024-01-11T10:22:41;39.05;;;16.98;;
52508;SDS011;38420;53.150;6.370;2024-01-11T10:25:14;35.97;;;16.23;;
52508;SDS011;38420;53.150;6.370;2024-01-11T10:27:41;39.90;;;15.73;;
52508;SDS011;38420;53.150;6.370;2024-01-11T10:30:11;39.63;;;17.55;;
52508;SDS011;38420;53.150;6.370;2024-01-11T10:32:44;41.20;;;17.27;;
52508;SDS011;38420;53.150;6.370;2024-01-11T10:35:10;45.55;;;19.00;;
52508;SDS011;38420;53.150;6.370;2024-01-11T10:37:36;42.53;;;18.95;;
52508;SDS011;38420;53.150;6.370;2024-01-11T10:40:06;46.42;;;19.98;;
52508;SDS011;38420;53.150;6.370;2024-01-11T10:42:41;46.47;;;19.98;;
52508;SDS011;38420;53.150;6.370;2024-01-11T10:45:15;52.63;;;19.63;;
52508;SDS011;38420;53.150;6.370;2024-01-11T10:50:18;55.20;;;21.60;;
52508;SDS011;38420;53.150;6.370;2024-01-11T10:55:33;47.83;;;21.35;;
52508;SDS011;38420;53.150;6.370;2024-01-11T10:58:00;43.67;;;19.53;;
52508;SDS011;38420;53.150;6.370;2024-01-11T11:00:30;44.78;;;18.77;;
52508;SDS011;38420;53.150;6.370;2024-01-11T11:02:56;40.75;;;18.60;;
52508;SDS011;38420;53.150;6.370;2024-01-11T11:05:25;44.08;;;19.20;;
52508;SDS011;38420;53.150;6.370;2024-01-11T11:07:52;41.20;;;19.35;;
52508;SDS011;38420;53.150;6.370;2024-01-11T11:10:19;40.70;;;18.30;;
52508;SDS011;38420;53.150;6.370;2024-01-11T11:12:49;48.72;;;18.02;;
52508;SDS011;38420;53.150;6.370;2024-01-11T11:15:15;42.95;;;17.77;;
52508;SDS011;38420;53.150;6.370;2024-01-11T11:17:40;40.53;;;16.77;;
52508;SDS011;38420;53.150;6.370;2024-01-11T11:20:10;38.03;;;17.15;;
52508;SDS011;38420;53.150;6.370;2024-01-11T11:22:37;39.97;;;16.95;;
52508;SDS011;38420;53.150;6.370;2024-01-11T11:25:11;32.05;;;15.85;;
52508;SDS011;38420;53.150;6.370;2024-01-11T11:27:57;39.63;;;16.48;;
52508;SDS011;38420;53.150;6.370;2024-01-11T11:30:26;34.28;;;15.43;;
52508;SDS011;38420;53.150;6.370;2024-01-11T11:32:52;38.25;;;17.02;;
52508;SDS011;38420;53.150;6.370;2024-01-11T11:35:20;34.22;;;15.77;;
52508;SDS011;38420;53.150;6.370;2024-01-11T11:37:47;36.83;;;15.80;;
52508;SDS011;38420;53.150;6.370;2024-01-11T11:40:15;34.50;;;16.58;;
52508;SDS011;38420;53.150;6.370;2024-01-11T11:42:41;34.88;;;15.95;;
52508;SDS011;38420;53.150;6.370;2024-01-11T11:45:07;35.53;;;15.80;;
52508;SDS011;38420;53.150;6.370;2024-01-11T11:47:36;37.10;;;16.02;;
52508;SDS011;38420;53.150;6.370;2024-01-11T11:52:32;37.60;;;16.70;;
52508;SDS011;38420;53.150;6.370;2024-01-11T11:55:02;33.47;;;15.35;;
52508;SDS011;38420;53.150;6.370;2024-01-11T11:57:28;33.05;;;15.43;;
52508;SDS011;38420;53.150;6.370;2024-01-11T11:59:57;38.75;;;15.18;;
52508;SDS011;38420;53.150;6.370;2024-01-11T12:02:32;33.22;;;13.45;;
52508;SDS011;38420;53.150;6.370;2024-01-11T12:05:01;34.42;;;13.48;;
52508;SDS011;38420;53.150;6.370;2024-01-11T12:07:28;31.85;;;14.65;;
52508;SDS011;38420;53.150;6.370;2024-01-11T12:09:54;35.05;;;15.73;;
52508;SDS011;38420;53.150;6.370;2024-01-11T12:12:20;28.65;;;15.07;;
52508;SDS011;38420;53.150;6.370;2024-01-11T12:14:46;36.78;;;14.20;;
52508;SDS011;38420;53.150;6.370;2024-01-11T12:17:14;33.63;;;14.27;;
52508;SDS011;38420;53.150;6.370;2024-01-11T12:19:39;28.98;;;13.65;;
52508;SDS011;38420;53.150;6.370;2024-01-11T12:22:05;33.80;;;14.38;;
52508;SDS011;38420;53.150;6.370;2024-01-11T12:24:30;33.17;;;14.20;;
52508;SDS011;38420;53.150;6.370;2024-01-11T12:26:58;37.03;;;14.98;;
52508;SDS011;38420;53.150;6.370;2024-01-11T12:29:24;33.63;;;15.27;;
52508;SDS011;38420;53.150;6.370;2024-01-11T12:31:50;28.92;;;13.50;;
52508;SDS011;38420;53.150;6.370;2024-01-11T12:34:16;32.00;;;14.77;;
52508;SDS011;38420;53.150;6.370;2024-01-11T12:36:42;29.75;;;13.63;;
52508;SDS011;38420;53.150;6.370;2024-01-11T12:39:08;31.10;;;14.13;;
52508;SDS011;38420;53.150;6.370;2024-01-11T12:41:38;31.98;;;14.05;;
52508;SDS011;38420;53.150;6.370;2024-01-11T12:44:04;31.30;;;13.25;;
52508;SDS011;38420;53.150;6.370;2024-01-11T12:46:30;31.38;;;14.15;;
52508;SDS011;38420;53.150;6.370;2024-01-11T12:48:56;31.75;;;15.45;;
52508;SDS011;38420;53.150;6.370;2024-01-11T12:51:21;29.10;;;13.65;;
52508;SDS011;38420;53.150;6.370;2024-01-11T12:53:47;28.05;;;13.35;;
52508;SDS011;38420;53.150;6.370;2024-01-11T12:56:16;33.40;;;14.43;;
52508;SDS011;38420;53.150;6.370;2024-01-11T12:58:42;31.83;;;14.07;;
52508;SDS011;38420;53.150;6.370;2024-01-11T13:01:08;29.67;;;14.43;;
52508;SDS011;38420;53.150;6.370;2024-01-11T13:03:34;31.38;;;13.18;;
52508;SDS011;38420;53.150;6.370;2024-01-11T13:06:01;26.35;;;12.65;;
52508;SDS011;38420;53.150;6.370;2024-01-11T13:08:29;29.85;;;13.27;;
52508;SDS011;38420;53.150;6.370;2024-01-11T13:10:59;29.55;;;13.70;;
52508;SDS011;38420;53.150;6.370;2024-01-11T13:13:26;31.75;;;13.90;;
52508;SDS011;38420;53.150;6.370;2024-01-11T13:15:53;28.20;;;12.68;;
52508;SDS011;38420;53.150;6.370;2024-01-11T13:18:18;28.38;;;12.25;;
52508;SDS011;38420;53.150;6.370;2024-01-11T13:20:44;32.47;;;13.00;;
52508;SDS011;38420;53.150;6.370;2024-01-11T13:25:48;28.77;;;12.55;;
52508;SDS011;38420;53.150;6.370;2024-01-11T13:28:15;26.75;;;12.43;;
52508;SDS011;38420;53.150;6.370;2024-01-11T13:30:41;25.67;;;13.15;;
52508;SDS011;38420;53.150;6.370;2024-01-11T13:33:08;27.20;;;12.00;;
52508;SDS011;38420;53.150;6.370;2024-01-11T13:35:35;28.60;;;11.75;;
52508;SDS011;38420;53.150;6.370;2024-01-11T13:38:02;25.08;;;11.48;;
52508;SDS011;38420;53.150;6.370;2024-01-11T13:40:28;30.77;;;11.50;;
52508;SDS011;38420;53.150;6.370;2024-01-11T13:42:55;28.23;;;12.85;;
52508;SDS011;38420;53.150;6.370;2024-01-11T13:45:26;26.30;;;11.52;;
52508;SDS011;38420;53.150;6.370;2024-01-11T13:47:53;30.05;;;12.60;;
52508;SDS011;38420;53.150;6.370;2024-01-11T13:50:19;32.33;;;13.18;;
52508;SDS011;38420;53.150;6.370;2024-01-11T13:52:45;30.85;;;13.63;;
52508;SDS011;38420;53.150;6.370;2024-01-11T13:55:11;33.97;;;12.60;;
52508;SDS011;38420;53.150;6.370;2024-01-11T13:57:37;26.92;;;11.98;;
52508;SDS011;38420;53.150;6.370;2024-01-11T14:00:04;70.70;;;11.93;;
52508;SDS011;38420;53.150;6.370;2024-01-11T14:02:30;23.38;;;12.18;;
52508;SDS011;38420;53.150;6.370;2024-01-11T14:04:56;25.70;;;11.50;;
52508;SDS011;38420;53.150;6.370;2024-01-11T14:07:22;28.70;;;12.68;;
52508;SDS011;38420;53.150;6.370;2024-01-11T14:09:48;26.30;;;12.35;;
52508;SDS011;38420;53.150;6.370;2024-01-11T14:12:14;27.08;;;11.43;;
52508;SDS011;38420;53.150;6.370;2024-01-11T14:14:40;28.67;;;12.93;;
52508;SDS011;38420;53.150;6.370;2024-01-11T14:17:06;25.38;;;11.55;;
52508;SDS011;38420;53.150;6.370;2024-01-11T14:19:33;26.08;;;12.02;;
52508;SDS011;38420;53.150;6.370;2024-01-11T14:21:58;31.05;;;13.35;;
52508;SDS011;38420;53.150;6.370;2024-01-11T14:24:24;25.92;;;12.40;;
52508;SDS011;38420;53.150;6.370;2024-01-11T14:26:50;29.10;;;12.63;;
52508;SDS011;38420;53.150;6.370;2024-01-11T14:29:16;25.75;;;12.73;;